TFM - Tactical Decision Aid
ID: Runway Winds: CIG/VIS Threshold:

KPHL - Philadelphia Intl, PA, US

Updated at: 0119 UTC 12 May 2021
Latest TAF at: 2326 UTC 11 May 2021

TAF Board

Time0054Z 12/02Z 12/03Z 12/04Z 12/05Z 12/06Z 12/07Z 12/08Z 12/09Z 12/10Z 12/11Z 12/12Z 12/13Z 12/14Z>>
Type OBS PRVL PRVL PRVL PRVL PRVL PRVL PRVL PRVL PRVL PRVL PRVL PRVL PRVL
VIS 10 >6 >6 >6 >6 >6 >6 >6 >6 >6 >6 >6 >6 >6
CIG 110 -- -- -- -- -- -- -- -- -- -- -- -- --
Cover BKN SCT SCT SCT SCT SCT SCT SCT SCT SCT SCT SCT SCT SCT
FltCat VFR VFR VFR VFR VFR VFR VFR VFR VFR VFR VFR VFR VFR VFR
WX -- -- -- -- -- -- -- -- -- -- -- -- -- --
WDir 280 310 310 310 310 310 310 310 310 310 310 310 330 330
WSpd 10 8 8 8 8 8 8 8 8 8 8 8 10 10
WGst -- -- -- -- -- -- -- -- -- -- -- -- 16 16

TDA Impact Legend

  None Marginal Slight Moderate High
Visibility (sm) >5 3≤X≤5 1≤X<3 0.5≤X<1 <0.5
Ceiling (100 ft) >30 10≤X≤30 4≤X<10 2≤X<4 <2
Wind Speed (kt) <15 15≤X<25 25≤X<30 ≥30
Wind Gust (kt) <15 15≤X<25 25≤X<35 ≥35
Weather No Wx Reported VCTS -TS,-FZRA TS,FZRA +TS,+FZRA
TAF
KPHL 112326Z 1200/1306 28012G18KT P6SM VCSH BKN110
  FM120200 31008KT P6SM SCT250
  FM121300 33010G16KT P6SM SCT250
  FM121800 33012G18KT P6SM SCT060
  FM122300 33010KT P6SM SCT250


METAR
KPHL 120054Z 28010KT 10SM BKN110 16/02 A3008 RMK AO2 SLP184 T01610022
KPHL 112354Z 26011KT 10SM BKN110 BKN250 16/02 A3005 RMK AO2 SLP173 T01610022 10194 20161 55001
KPHL 112254Z 26015KT 10SM BKN110 17/02 A3004 RMK AO2 PK WND 26027/2204 SLP171 T01720022
KPHL 112154Z 27017G26KT 10SM BKN120 BKN250 18/03 A3004 RMK AO2 PK WND 26026/2153 SLP171 T01830028

Radar Display
Forecast Discussion